Terminal Aerodrome Forecast
Issued by NWS

Home | Current Version | Previous Version | Graphics & Text | Print | Product List | Glossary On
Versions: 1 2 3 4 5 6 7 8 9 10 11 12 13 14 15 16
000
FTUS43 KTOP 230500
TAFFOE
TAF
KFOE 230529Z 2306/2406 25007KT P6SM SCT070
     FM231700 31013KT P6SM BKN018
     FM240000 33015G22KT 4SM -RASN BR OVC010=

USA.gov is the U.S. government's official web portal to all federal, state and local government web resources and services.